Terminal Aerodrome Forecast
Issued by NWS

Home | Current Version | Previous Version | Text Only | Print | Product List | Glossary On
Versions: 1 2 3 4 5 6 7 8 9 10 11 12 13 14 15 16 17 18 19
000
FTUS41 KCLE 291129
TAFFDY
TAF
KFDY 291129Z 2912/3012 15008KT P6SM VCSH SCT050 BKN080
      TEMPO 2912/2915 5SM -SHRA BKN035
     FM291500 19012G18KT P6SM VCSH BKN050
     FM291900 20012G20KT P6SM VCTS BKN050CB=

USA.gov is the U.S. government's official web portal to all federal, state and local government web resources and services.